Time;durP1;ratioP1;P1;durP2;ratioP2;P2;SDS_P1;SDS_P2;PMS_P1;PMS_P2;Temp;Humidity;BMP_temperature;BMP_pressure;BME280_temperature;BME280_humidity;BME280_pressure;Samples;Min_cycle;Max_cycle;Signal;HPM_P1;HPM_P2
2022/06/09 00:00:14;;;;;;;13.48;1.85;;;12.10;97.00;;;;;;5058082;28;20036;-45
2022/06/09 00:02:44;;;;;;;9.07;1.92;;;12.10;97.20;;;;;;5057773;28;20037;-55
2022/06/09 00:05:12;;;;;;;8.07;1.60;;;12.10;97.30;;;;;;5072069;28;20037;-60
2022/06/09 00:07:39;;;;;;;9.45;1.70;;;12.00;97.20;;;;;;5060396;28;20538;-58
2022/06/09 00:10:08;;;;;;;12.07;2.00;;;12.00;97.40;;;;;;5055321;28;20028;-56
2022/06/09 00:12:35;;;;;;;12.40;2.03;;;12.00;97.50;;;;;;5062445;28;20055;-58
2022/06/09 00:15:04;;;;;;;10.77;1.90;;;12.00;97.30;;;;;;5068850;28;20035;-54
2022/06/09 00:17:30;;;;;;;19.23;2.10;;;11.90;97.40;;;;;;5063123;28;20098;-52
2022/06/09 00:19:56;;;;;;;11.65;2.10;;;11.90;97.60;;;;;;5061094;28;20048;-52
2022/06/09 00:22:22;;;;;;;5.20;1.50;;;11.90;97.70;;;;;;5068735;28;20021;-57
2022/06/09 00:24:47;;;;;;;8.15;2.10;;;11.90;97.90;;;;;;5054640;28;20032;-58
2022/06/09 00:27:13;;;;;;;8.60;1.88;;;11.90;97.90;;;;;;5067865;28;20020;-59
2022/06/09 00:29:39;;;;;;;9.23;1.90;;;11.80;97.90;;;;;;5062717;28;20028;-53
2022/06/09 00:32:05;;;;;;;6.40;1.58;;;11.80;98.00;;;;;;5063039;28;20027;-56
2022/06/09 00:34:31;;;;;;;7.05;1.63;;;11.80;98.00;;;;;;5062704;28;20029;-51
2022/06/09 00:36:57;;;;;;;9.65;2.10;;;11.80;97.90;;;;;;5068667;28;20024;-57
2022/06/09 00:39:23;;;;;;;8.50;2.28;;;11.80;98.20;;;;;;5065669;28;20388;-55
2022/06/09 00:41:48;;;;;;;9.98;2.22;;;11.80;98.10;;;;;;5052949;28;20550;-58
2022/06/09 00:44:21;;;;;;;11.88;1.80;;;11.80;98.10;;;;;;5049931;28;20059;-45
2022/06/09 00:47:09;;;;;;;12.13;2.08;;;11.80;98.10;;;;;;5062469;28;20118;-55
2022/06/09 00:49:42;;;;;;;12.32;2.70;;;11.80;98.10;;;;;;5059556;28;20029;-59
2022/06/09 00:52:10;;;;;;;9.50;2.05;;;11.70;98.00;;;;;;5058776;28;20049;-60
2022/06/09 00:54:50;;;;;;;5.05;1.52;;;11.70;98.10;;;;;;5067946;28;20575;-58
2022/06/09 00:57:26;;;;;;;12.00;2.08;;;11.70;98.10;;;;;;5067827;28;20095;-50
2022/06/09 00:59:55;;;;;;;8.82;1.95;;;11.70;98.10;;;;;;5068065;28;20052;-58
2022/06/09 01:02:22;;;;;;;12.85;2.45;;;11.70;98.10;;;;;;5058890;28;20399;-52
2022/06/09 01:04:52;;;;;;;10.85;2.20;;;11.70;98.10;;;;;;5062859;28;20108;-59
2022/06/09 01:07:26;;;;;;;;;;;11.70;98.20;;;;;;5063087;28;20112;-60
2022/06/09 01:09:52;;;;;;;11.60;2.00;;;11.70;98.20;;;;;;5055141;28;19909;-59
2022/06/09 01:12:30;;;;;;;10.32;1.98;;;11.70;98.00;;;;;;5063987;28;20028;-58
2022/06/09 01:15:09;;;;;;;13.10;2.58;;;11.60;97.90;;;;;;5057247;28;20024;-56
2022/06/09 01:18:12;;;;;;;11.30;2.65;;;11.60;98.20;;;;;;5068951;28;20104;-53
2022/06/09 01:20:44;;;;;;;12.27;2.38;;;11.50;98.20;;;;;;5057098;28;20032;-55
2022/06/09 01:23:28;;;;;;;12.77;2.50;;;11.50;98.30;;;;;;5056014;28;20033;-57
2022/06/09 01:26:10;;;;;;;12.68;2.20;;;11.50;98.10;;;;;;5062631;28;20032;-48
2022/06/09 01:29:06;;;;;;;7.60;1.95;;;11.50;98.10;;;;;;5065177;28;20029;-47
2022/06/09 01:31:42;;;;;;;10.40;2.20;;;11.50;98.00;;;;;;5064076;28;20056;-52
2022/06/09 01:34:42;;;;;;;4.78;1.60;;;11.50;98.00;;;;;;5059733;28;20395;-54
2022/06/09 01:37:16;;;;;;;11.05;1.85;;;11.40;98.00;;;;;;5056168;28;20017;-52
2022/06/09 01:39:49;;;;;;;9.40;2.38;;;11.40;98.10;;;;;;5064420;28;20037;-55
2022/06/09 01:42:54;;;;;;;15.15;2.60;;;11.30;98.30;;;;;;5059187;28;20111;-54
2022/06/09 01:45:23;;;;;;;12.48;2.03;;;11.30;98.50;;;;;;5061387;28;20040;-56
2022/06/09 01:47:58;;;;;;;12.70;2.70;;;11.20;98.80;;;;;;5065597;28;20501;-57
2022/06/09 01:50:42;;;;;;;7.03;2.20;;;11.20;98.80;;;;;;5060033;28;20679;-57
2022/06/09 01:53:15;;;;;;;12.38;2.70;;;11.20;98.80;;;;;;5055897;28;20544;-47
2022/06/09 01:55:46;;;;;;;14.63;2.40;;;11.20;98.90;;;;;;5067532;28;20036;-52
2022/06/09 01:58:15;;;;;;;11.88;2.40;;;11.20;98.90;;;;;;5063515;28;20156;-59
2022/06/09 02:00:42;;;;;;;9.50;2.15;;;11.20;98.90;;;;;;5052865;28;20044;-61
2022/06/09 02:03:14;;;;;;;11.70;2.13;;;11.10;98.90;;;;;;5049719;28;20029;-57
2022/06/09 02:05:48;;;;;;;12.00;2.60;;;11.20;99.00;;;;;;5068242;28;20024;-59
2022/06/09 02:08:16;;;;;;;11.27;2.42;;;11.20;98.90;;;;;;5056669;28;20013;-55
2022/06/09 02:10:46;;;;;;;9.77;2.22;;;11.20;98.80;;;;;;5060318;28;20020;-58
2022/06/09 02:13:27;;;;;;;10.75;2.72;;;11.20;98.80;;;;;;5060916;28;20025;-56
2022/06/09 02:15:57;;;;;;;9.60;2.50;;;11.10;99.00;;;;;;5061943;28;20064;-52
2022/06/09 02:18:25;;;;;;;9.30;1.90;;;11.10;99.10;;;;;;5062406;28;20024;-45
2022/06/09 02:21:03;;;;;;;10.52;2.22;;;11.10;99.10;;;;;;5062804;28;20036;-58
2022/06/09 02:23:29;;;;;;;12.25;2.25;;;11.10;99.10;;;;;;5062786;28;20035;-48
2022/06/09 02:25:55;;;;;;;11.82;2.08;;;11.10;99.10;;;;;;5049627;28;20025;-52
2022/06/09 02:28:21;;;;;;;10.55;2.30;;;11.10;99.10;;;;;;5057026;28;20462;-63
2022/06/09 02:30:47;;;;;;;10.65;2.60;;;11.20;99.20;;;;;;5068673;28;20443;-57
2022/06/09 02:33:12;;;;;;;8.48;2.20;;;11.20;99.20;;;;;;5054728;28;20029;-59
2022/06/09 02:35:39;;;;;;;9.75;1.98;;;11.20;99.00;;;;;;5062950;28;20061;-54
2022/06/09 02:38:05;;;;;;;9.98;2.20;;;11.20;99.10;;;;;;5055995;28;20022;-56
2022/06/09 02:40:31;;;;;;;11.75;2.60;;;11.10;99.30;;;;;;5063169;28;20029;-56
2022/06/09 02:42:57;;;;;;;8.38;2.10;;;11.10;99.30;;;;;;5066478;28;20039;-55
2022/06/09 02:45:23;;;;;;;12.00;2.55;;;11.20;99.40;;;;;;5052343;28;20373;-56
2022/06/09 02:47:49;;;;;;;11.50;2.30;;;11.20;99.20;;;;;;5063945;28;20095;-59
2022/06/09 02:50:15;;;;;;;12.75;2.13;;;11.20;99.30;;;;;;5053996;28;20472;-51
2022/06/09 02:52:41;;;;;;;10.43;2.72;;;11.20;99.20;;;;;;5063824;28;20031;-60
2022/06/09 02:55:08;;;;;;;14.77;3.35;;;11.20;99.20;;;;;;5067646;28;20025;-58
2022/06/09 02:57:34;;;;;;;14.50;2.50;;;11.20;99.20;;;;;;5053456;28;20112;-59
2022/06/09 03:00:00;;;;;;;9.32;2.08;;;11.20;99.40;;;;;;5057407;28;20481;-45
2022/06/09 03:02:25;;;;;;;9.20;1.98;;;11.20;99.50;;;;;;5080807;28;20031;-50
2022/06/09 03:04:51;;;;;;;9.40;2.17;;;11.20;99.60;;;;;;5065561;28;20020;-60
2022/06/09 03:07:17;;;;;;;12.82;2.15;;;11.20;99.60;;;;;;5063441;28;20035;-57
2022/06/09 03:09:43;;;;;;;10.57;2.38;;;11.20;99.70;;;;;;5073222;28;20426;-53
2022/06/09 03:12:10;;;;;;;10.43;2.10;;;11.20;99.70;;;;;;5073014;28;20104;-43
2022/06/09 03:14:37;;;;;;;7.03;1.90;;;11.20;99.70;;;;;;5058927;28;20024;-56
2022/06/09 03:17:03;;;;;;;11.13;2.28;;;11.30;99.60;;;;;;5058741;28;20488;-56
2022/06/09 03:19:29;;;;;;;13.15;2.38;;;11.30;99.50;;;;;;5072827;28;20036;-41
2022/06/09 03:21:54;;;;;;;17.83;2.65;;;11.30;99.30;;;;;;5073043;28;20086;-46
2022/06/09 03:24:20;;;;;;;6.90;2.10;;;11.30;99.40;;;;;;5067894;28;20036;-41
2022/06/09 03:26:46;;;;;;;16.35;2.55;;;11.20;99.50;;;;;;5063785;28;20078;-59
2022/06/09 03:29:12;;;;;;;8.65;2.72;;;11.30;99.60;;;;;;5072613;28;20048;-55
2022/06/09 03:31:38;;;;;;;8.35;2.00;;;11.20;99.60;;;;;;5072864;28;20027;-53
2022/06/09 03:34:03;;;;;;;13.23;2.92;;;11.20;99.80;;;;;;5072639;28;20444;-61
2022/06/09 03:36:31;;;;;;;11.82;2.65;;;11.20;99.70;;;;;;5072620;28;20032;-41
2022/06/09 03:38:58;;;;;;;11.75;2.80;;;11.20;99.80;;;;;;5072735;28;20021;-42
2022/06/09 03:41:24;;;;;;;10.25;2.40;;;11.20;99.80;;;;;;5049768;28;20063;-41
2022/06/09 03:43:49;;;;;;;9.93;2.25;;;11.30;99.80;;;;;;5063302;28;20091;-41
2022/06/09 03:46:15;;;;;;;15.88;3.17;;;11.30;99.70;;;;;;5071815;28;20107;-41
2022/06/09 03:48:41;;;;;;;9.20;2.42;;;11.30;99.70;;;;;;5072301;28;20082;-43
2022/06/09 03:51:07;;;;;;;13.88;3.40;;;11.30;99.80;;;;;;5069666;28;20487;-41
2022/06/09 03:53:33;;;;;;;10.07;2.47;;;11.30;99.70;;;;;;5052347;28;20095;-44
2022/06/09 03:55:58;;;;;;;16.52;2.88;;;11.40;99.70;;;;;;5052140;28;20420;-40
2022/06/09 03:58:24;;;;;;;11.10;2.55;;;11.30;99.40;;;;;;5036721;28;20049;-41
2022/06/09 04:00:50;;;;;;;12.95;2.60;;;11.20;99.40;;;;;;5052104;28;20060;-41
2022/06/09 04:03:15;;;;;;;10.57;3.13;;;11.30;99.50;;;;;;5051833;28;20082;-44
2022/06/09 04:05:41;;;;;;;9.23;3.03;;;11.30;99.40;;;;;;5052331;28;20043;-57
2022/06/09 04:08:11;;;;;;;11.65;4.00;;;11.30;99.40;;;;;;5052023;28;20048;-58
2022/06/09 04:10:36;;;;;;;;;;;11.30;99.30;;;;;;5052317;28;20074;-48
2022/06/09 04:13:02;;;;;;;18.10;2.90;;;11.30;99.20;;;;;;5051785;28;19912;-51
2022/06/09 04:15:28;;;;;;;7.25;2.03;;;11.30;99.00;;;;;;5051684;28;20078;-52
2022/06/09 04:17:54;;;;;;;6.75;2.03;;;11.30;98.90;;;;;;5062056;28;20025;-53
2022/06/09 04:20:22;;;;;;;16.63;3.63;;;11.30;98.90;;;;;;5071698;28;20028;-57
2022/06/09 04:22:48;;;;;;;8.85;1.95;;;11.30;98.90;;;;;;5071784;28;20047;-51
2022/06/09 04:25:14;;;;;;;8.35;2.28;;;11.20;98.80;;;;;;5071556;28;20449;-61
2022/06/09 04:27:39;;;;;;;11.05;2.40;;;11.20;98.90;;;;;;5071790;28;20089;-59
2022/06/09 04:30:07;;;;;;;11.00;2.50;;;11.20;99.10;;;;;;5071646;28;20093;-57
2022/06/09 04:32:32;;;;;;;9.70;2.13;;;11.20;99.20;;;;;;5067297;28;20375;-53
2022/06/09 04:34:58;;;;;;;8.18;1.90;;;11.30;99.30;;;;;;5071504;28;20025;-55
2022/06/09 04:37:59;;;;;;;13.15;2.63;;;11.40;99.50;;;;;;5071247;28;20518;-60
2022/06/09 04:40:11;;;;;;;7.68;2.20;;;11.40;99.50;;;;;;5071211;28;20086;-58
2022/06/09 04:42:36;;;;;;;14.57;2.35;;;11.50;99.50;;;;;;5071254;28;20020;-60
2022/06/09 04:45:03;;;;;;;8.18;2.22;;;11.60;99.30;;;;;;5071327;28;20031;-54
2022/06/09 04:47:29;;;;;;;7.00;2.25;;;11.70;99.30;;;;;;5070944;28;20025;-57
2022/06/09 04:49:55;;;;;;;11.23;2.40;;;11.70;99.30;;;;;;5071157;28;20074;-61
2022/06/09 04:52:20;;;;;;;9.75;2.20;;;11.80;99.10;;;;;;5071344;28;20111;-55
2022/06/09 04:54:46;;;;;;;8.85;2.50;;;11.90;99.00;;;;;;5071208;28;20044;-57
2022/06/09 04:57:12;;;;;;;12.10;2.03;;;12.20;99.00;;;;;;5070710;28;20395;-54
2022/06/09 04:59:37;;;;;;;5.95;1.50;;;12.60;98.10;;;;;;5070770;28;20040;-48
2022/06/09 05:02:03;;;;;;;7.00;1.73;;;12.90;97.40;;;;;;5071217;28;20024;-59
2022/06/09 05:04:29;;;;;;;6.65;1.77;;;13.40;96.40;;;;;;5071026;28;20394;-60
2022/06/09 05:06:54;;;;;;;7.03;1.65;;;13.70;95.30;;;;;;5071243;28;20024;-56
2022/06/09 05:09:20;;;;;;;6.97;1.58;;;14.00;94.50;;;;;;5071319;28;20127;-60
2022/06/09 05:11:46;;;;;;;9.20;1.83;;;14.30;94.00;;;;;;5068671;28;20494;-53
2022/06/09 05:14:13;;;;;;;6.25;1.50;;;14.40;93.70;;;;;;5070904;28;20085;-58
2022/06/09 05:16:39;;;;;;;9.25;1.92;;;14.40;93.50;;;;;;5069390;28;20021;-60
2022/06/09 05:19:04;;;;;;;12.50;2.80;;;14.40;93.60;;;;;;5056927;28;20027;-52
2022/06/09 05:21:30;;;;;;;8.45;2.28;;;14.30;93.60;;;;;;5070866;28;20064;-53
2022/06/09 05:23:56;;;;;;;8.82;2.25;;;14.30;93.90;;;;;;5070705;28;20020;-59
2022/06/09 05:26:22;;;;;;;7.53;2.45;;;14.40;94.30;;;;;;5070939;28;20074;-60
2022/06/09 05:28:47;;;;;;;14.93;2.75;;;14.30;94.80;;;;;;5070826;28;20105;-58
2022/06/09 05:31:13;;;;;;;13.35;2.72;;;14.40;94.80;;;;;;5070961;28;20029;-60
2022/06/09 05:33:40;;;;;;;10.38;2.47;;;14.40;95.10;;;;;;5070188;28;20020;-55
2022/06/09 05:36:06;;;;;;;12.13;2.22;;;14.50;95.00;;;;;;5070914;28;20376;-62
2022/06/09 05:46:46;;;;;;;12.13;2.53;;;14.90;94.20;;;;;;5070952;28;20046;-53
2022/06/09 05:49:13;;;;;;;12.00;2.35;;;15.40;93.90;;;;;;5070703;28;20024;-59
2022/06/09 05:51:38;;;;;;;12.40;2.53;;;15.90;92.80;;;;;;5070508;28;20052;-56
2022/06/09 05:54:04;;;;;;;8.48;1.98;;;16.60;91.10;;;;;;5070624;28;20055;-52
2022/06/09 05:56:30;;;;;;;13.50;2.60;;;17.50;89.30;;;;;;5070638;28;20039;-60
2022/06/09 05:58:56;;;;;;;9.15;2.47;;;18.30;82.60;;;;;;5052661;28;20032;-58
2022/06/09 06:01:22;;;;;;;7.90;2.28;;;19.10;80.00;;;;;;5070402;28;20032;-61
2022/06/09 06:03:48;;;;;;;6.55;1.70;;;20.00;78.40;;;;;;5070631;28;20480;-47
2022/06/09 06:08:58;;;;;;;9.13;2.47;;;21.30;75.60;;;;;;5070433;28;20498;-59
2022/06/09 06:11:24;;;;;;;9.85;2.25;;;21.80;72.20;;;;;;5072943;28;20029;-56
2022/06/09 06:13:50;;;;;;;8.38;2.40;;;22.60;66.90;;;;;;5072390;28;20569;-58
2022/06/09 06:16:16;;;;;;;9.68;2.20;;;23.00;65.40;;;;;;5072773;28;20487;-57
2022/06/09 06:18:42;;;;;;;9.73;2.33;;;23.30;66.10;;;;;;5072905;28;20028;-58
2022/06/09 06:21:08;;;;;;;8.65;2.20;;;22.90;62.00;;;;;;5088190;28;20120;-56
2022/06/09 06:23:33;;;;;;;10.88;2.45;;;23.20;62.00;;;;;;5071288;28;20025;-51
2022/06/09 06:25:59;;;;;;;9.75;2.17;;;24.00;62.10;;;;;;5059592;28;20064;-64
2022/06/09 06:28:27;;;;;;;12.15;2.35;;;24.20;59.70;;;;;;5054448;28;20422;-59
2022/06/09 06:30:53;;;;;;;10.70;2.60;;;24.10;61.90;;;;;;5053948;28;20048;-61
2022/06/09 06:33:19;;;;;;;8.38;2.42;;;23.60;64.80;;;;;;5053788;28;20163;-59
2022/06/09 06:35:45;;;;;;;14.15;2.42;;;23.70;63.20;;;;;;5056233;28;20112;-55
2022/06/09 06:38:11;;;;;;;12.32;2.50;;;24.00;60.80;;;;;;5056092;28;20032;-61
2022/06/09 06:40:37;;;;;;;8.38;2.00;;;24.50;61.30;;;;;;5056921;28;20392;-59
2022/06/09 06:43:03;;;;;;;12.07;2.80;;;25.00;60.30;;;;;;5053433;28;20017;-44
2022/06/09 06:45:30;;;;;;;13.25;2.63;;;25.30;62.20;;;;;;5063572;28;20036;-53
2022/06/09 06:47:56;;;;;;;10.90;2.80;;;25.40;59.20;;;;;;5061656;28;20036;-62
2022/06/09 06:50:23;;;;;;;10.27;2.38;;;26.00;59.10;;;;;;5061809;28;20021;-49
2022/06/09 06:52:49;;;;;;;9.07;2.28;;;26.50;58.00;;;;;;5059365;28;20028;-55
2022/06/09 06:55:16;;;;;;;7.55;2.42;;;26.90;56.00;;;;;;5070841;28;20028;-54
2022/06/09 06:57:42;;;;;;;11.52;2.55;;;26.50;54.90;;;;;;5068491;28;20025;-47
2022/06/09 07:00:10;;;;;;;11.45;2.30;;;25.60;51.70;;;;;;5052505;28;20464;-56
2022/06/09 07:02:36;;;;;;;10.98;2.65;;;24.80;57.90;;;;;;5065552;28;20104;-44
2022/06/09 07:05:03;;;;;;;11.68;2.53;;;24.30;61.70;;;;;;5070981;28;20340;-45
2022/06/09 07:07:30;;;;;;;11.88;2.58;;;24.60;61.80;;;;;;5050876;28;20024;-52
2022/06/09 07:09:56;;;;;;;14.00;2.78;;;25.20;60.00;;;;;;5064043;28;20025;-50
2022/06/09 07:12:21;;;;;;;10.05;2.35;;;25.70;60.00;;;;;;5053569;28;20029;-56
2022/06/09 07:14:47;;;;;;;10.15;2.28;;;26.10;52.80;;;;;;5064027;28;20025;-53
2022/06/09 07:17:13;;;;;;;10.20;2.50;;;26.20;51.80;;;;;;5070792;28;20446;-52
2022/06/09 07:19:39;;;;;;;9.65;2.28;;;26.10;57.00;;;;;;5071241;28;20044;-59
2022/06/09 07:22:06;;;;;;;13.70;2.35;;;26.00;55.20;;;;;;5065345;28;20387;-48
2022/06/09 07:24:32;;;;;;;10.07;2.50;;;26.20;59.30;;;;;;5071078;28;20434;-53
2022/06/09 07:26:58;;;;;;;13.60;3.75;;;26.70;54.60;;;;;;5067803;28;20032;-51
2022/06/09 07:29:25;;;;;;;12.25;2.50;;;26.60;54.30;;;;;;5070295;28;20151;-43
2022/06/09 07:31:51;;;;;;;14.57;2.95;;;27.00;56.30;;;;;;5066883;28;20033;-39
2022/06/09 07:34:18;;;;;;;13.77;2.67;;;27.30;53.20;;;;;;5069748;28;20060;-38
2022/06/09 07:36:43;;;;;;;10.50;2.55;;;27.80;53.70;;;;;;5069836;28;20854;-54
2022/06/09 07:39:10;;;;;;;12.65;2.83;;;28.30;51.90;;;;;;5068693;28;20515;-47
2022/06/09 07:41:40;;;;;;;11.15;2.40;;;28.40;48.10;;;;;;5068684;28;20475;-48
2022/06/09 07:44:08;;;;;;;10.68;2.35;;;28.80;47.50;;;;;;5050735;28;20020;-54
2022/06/09 07:46:34;;;;;;;13.83;2.37;;;28.90;46.40;;;;;;5069589;28;20033;-56
2022/06/09 07:49:00;;;;;;;10.68;2.67;;;28.50;45.10;;;;;;5069662;28;21115;-59
2022/06/09 07:51:28;;;;;;;9.18;2.15;;;28.40;51.10;;;;;;5069794;28;20067;-46
2022/06/09 07:53:54;;;;;;;7.45;2.05;;;28.50;47.50;;;;;;5071189;28;20024;-48
2022/06/09 07:56:20;;;;;;;8.93;2.08;;;29.20;47.50;;;;;;5065396;28;20029;-56
2022/06/09 07:58:46;;;;;;;10.00;2.80;;;29.60;49.00;;;;;;5061997;28;20083;-43
2022/06/09 08:01:12;;;;;;;8.07;2.38;;;29.70;46.40;;;;;;5063091;28;20120;-56
2022/06/09 08:03:40;;;;;;;11.68;2.50;;;29.80;45.20;;;;;;5070470;28;20016;-54
2022/06/09 08:06:07;;;;;;;11.32;2.58;;;30.00;46.80;;;;;;5052007;28;20040;-52
2022/06/09 08:08:33;;;;;;;10.60;2.90;;;29.80;47.50;;;;;;5067231;28;20036;-62
2022/06/09 08:10:59;;;;;;;9.82;2.33;;;29.70;45.40;;;;;;5075509;28;20032;-60
2022/06/09 08:13:25;;;;;;;12.95;2.67;;;29.70;44.40;;;;;;5071643;28;20549;-57
2022/06/09 08:15:50;;;;;;;8.57;2.35;;;29.70;50.40;;;;;;5068083;28;20032;-56
2022/06/09 08:18:16;;;;;;;10.07;2.33;;;29.90;48.30;;;;;;5068984;28;20027;-56
2022/06/09 08:20:44;;;;;;;13.93;2.88;;;29.60;45.10;;;;;;5067770;28;20055;-59
2022/06/09 08:23:21;;;;;;;10.60;2.60;;;29.30;44.80;;;;;;5068456;28;20023;-54
2022/06/09 08:25:48;;;;;;;9.80;2.65;;;28.90;48.30;;;;;;5069199;28;20063;-59
2022/06/09 08:28:19;;;;;;;9.43;2.38;;;29.10;47.00;;;;;;5070704;28;20017;-54
2022/06/09 08:30:53;;;;;;;10.93;2.15;;;29.30;48.30;;;;;;5069240;28;20039;-55
2022/06/09 08:33:21;;;;;;;11.18;2.42;;;29.50;44.10;;;;;;5067724;28;20503;-62
2022/06/09 08:35:47;;;;;;;10.45;2.33;;;29.50;47.80;;;;;;5065498;28;20094;-56
2022/06/09 08:38:12;;;;;;;10.52;2.30;;;29.80;47.80;;;;;;5053277;28;20021;-62
2022/06/09 08:40:56;;;;;;;11.73;2.80;;;29.80;46.30;;;;;;5063107;28;20044;-51
2022/06/09 08:43:44;;;;;;;11.80;2.60;;;29.50;49.40;;;;;;5061677;28;20029;-47
2022/06/09 08:46:23;;;;;;;10.57;2.30;;;29.80;44.80;;;;;;5063395;28;20508;-56
2022/06/09 08:48:50;;;;;;;;;;;29.40;43.50;;;;;;5055937;28;20025;-60
2022/06/09 08:51:30;;;;;;;11.23;2.05;;;29.00;46.70;;;;;;5061179;28;20129;-57
2022/06/09 08:54:08;;;;;;;7.20;1.80;;;28.80;48.90;;;;;;5067497;28;20032;-58
2022/06/09 08:56:34;;;;;;;;;;;28.90;46.20;;;;;;5050534;28;20021;-54
2022/06/09 08:59:12;;;;;;;9.15;2.35;;;28.30;44.20;;;;;;5057225;28;19916;-55
2022/06/09 09:01:44;;;;;;;10.25;1.98;;;28.50;45.00;;;;;;5051002;28;20048;-56
2022/06/09 09:04:19;;;;;;;7.03;1.55;;;29.10;47.10;;;;;;5051072;28;20107;-59
2022/06/09 09:07:01;;;;;;;6.40;1.33;;;29.40;43.30;;;;;;5055756;28;20515;-60
2022/06/09 09:09:30;;;;;;;9.48;2.30;;;29.40;45.90;;;;;;5058267;28;20082;-53
2022/06/09 09:12:02;;;;;;;7.30;2.47;;;29.40;43.40;;;;;;5052431;28;20391;-56
2022/06/09 09:14:40;;;;;;;7.10;2.22;;;29.40;40.90;;;;;;5053965;28;20033;-54
2022/06/09 09:17:27;;;;;;;7.13;2.00;;;29.40;45.30;;;;;;5055355;28;20016;-54
2022/06/09 09:20:02;;;;;;;6.80;1.50;;;29.90;47.90;;;;;;5070753;28;20029;-57
2022/06/09 09:22:42;;;;;;;9.15;1.73;;;30.10;43.60;;;;;;5070399;28;20024;-55
2022/06/09 09:25:40;;;;;;;6.13;1.88;;;30.50;43.80;;;;;;5064624;28;20016;-56
2022/06/09 09:28:30;;;;;;;10.82;2.17;;;30.70;39.70;;;;;;5065384;28;20032;-55
2022/06/09 09:31:38;;;;;;;11.07;2.20;;;30.80;40.20;;;;;;5065661;28;20068;-59
2022/06/09 09:34:04;;;;;;;7.97;2.00;;;30.10;41.60;;;;;;5067971;28;20033;-50
2022/06/09 09:36:37;;;;;;;11.30;3.78;;;29.40;46.20;;;;;;5066183;28;20090;-51
2022/06/09 09:39:08;;;;;;;8.60;1.85;;;28.90;43.10;;;;;;5066556;28;20056;-58
2022/06/09 09:41:38;;;;;;;8.15;1.70;;;28.60;43.80;;;;;;5066073;28;20075;-51
2022/06/09 09:44:18;;;;;;;10.00;1.73;;;28.70;46.40;;;;;;5071616;28;20025;-60
2022/06/09 09:46:50;;;;;;;10.50;2.10;;;29.20;48.30;;;;;;5070045;28;20104;-50
2022/06/09 09:49:25;;;;;;;9.18;1.90;;;29.50;43.50;;;;;;5068821;28;20351;-55
2022/06/09 09:51:51;;;;;;;8.13;2.28;;;28.40;47.30;;;;;;5073809;28;20025;-59
2022/06/09 09:54:26;;;;;;;12.70;2.78;;;27.40;46.60;;;;;;5067803;28;20032;-61
2022/06/09 09:57:17;;;;;;;14.15;3.08;;;26.40;50.30;;;;;;5058819;28;20045;-61
2022/06/09 09:59:52;;;;;;;10.75;2.30;;;25.30;51.90;;;;;;5060768;28;20716;-52
2022/06/09 10:08:38;;;;;;;14.85;2.88;;;22.80;59.20;;;;;;5022974;28;20037;-60
2022/06/09 10:14:39;;;;;;;12.35;2.30;;;22.70;65.60;;;;;;5052476;28;20124;-57
2022/06/09 10:17:26;;;;;;;11.07;2.10;;;22.60;63.40;;;;;;5055616;28;20016;-52
2022/06/09 10:20:03;;;;;;;12.77;2.08;;;22.40;63.50;;;;;;5072375;28;20538;-55
2022/06/09 10:22:33;;;;;;;9.07;2.60;;;22.30;65.70;;;;;;5057913;28;20029;-55
2022/06/09 10:25:21;;;;;;;13.40;2.67;;;22.10;66.00;;;;;;5070044;28;20043;-51
2022/06/09 10:27:53;;;;;;;11.68;2.38;;;21.50;69.60;;;;;;5065721;28;20024;-55
2022/06/09 10:30:28;;;;;;;11.90;2.72;;;21.20;69.90;;;;;;5053905;28;20100;-52
2022/06/09 10:32:57;;;;;;;11.55;2.42;;;21.20;71.40;;;;;;5053574;28;20029;-57
2022/06/09 10:35:41;;;;;;;9.45;2.25;;;21.30;75.60;;;;;;5053635;28;20495;-49
2022/06/09 10:38:12;;;;;;;12.95;2.70;;;21.30;70.90;;;;;;5053930;28;20033;-59
2022/06/09 10:40:40;;;;;;;10.57;2.42;;;21.30;70.00;;;;;;5060282;28;20528;-58
2022/06/09 10:43:17;;;;;;;14.05;2.88;;;21.20;70.30;;;;;;5073675;28;20486;-59
2022/06/09 10:46:19;;;;;;;13.35;2.40;;;21.20;71.00;;;;;;5055751;28;20020;-53
2022/06/09 10:55:37;;;;;;;9.05;2.13;;;20.50;75.20;;;;;;5072413;28;20090;-57
2022/06/09 10:58:22;;;;;;;19.58;3.15;;;20.50;72.00;;;;;;5073703;28;20028;-49
2022/06/09 11:00:52;;;;;;;13.35;2.47;;;20.30;72.60;;;;;;5073477;28;20167;-48
2022/06/09 11:03:24;;;;;;;13.50;2.50;;;20.10;77.50;;;;;;5073344;28;20415;-54
2022/06/09 11:06:28;;;;;;;11.00;2.42;;;20.10;76.20;;;;;;5073366;28;20024;-47
2022/06/09 11:08:59;;;;;;;13.60;2.35;;;19.90;80.00;;;;;;5073386;28;20557;-43
2022/06/09 11:11:39;;;;;;;13.05;2.50;;;20.00;81.40;;;;;;5073230;28;20025;-40
2022/06/09 11:14:24;;;;;;;14.43;2.30;;;19.80;76.50;;;;;;5073046;28;20020;-43
2022/06/09 11:16:55;;;;;;;15.00;2.65;;;19.70;78.30;;;;;;5068252;28;20025;-43
2022/06/09 11:19:58;;;;;;;13.20;2.58;;;19.80;79.10;;;;;;5052992;28;20031;-40
2022/06/09 11:22:40;;;;;;;15.00;3.22;;;20.00;81.90;;;;;;5051087;28;20116;-43
2022/06/09 11:25:14;;;;;;;14.48;3.28;;;20.60;82.90;;;;;;5053040;28;20024;-41
2022/06/09 11:27:49;;;;;;;17.08;2.60;;;21.10;79.10;;;;;;5052710;28;20100;-40
2022/06/09 11:30:33;;;;;;;17.42;3.03;;;21.50;80.90;;;;;;5052878;28;20029;-40
2022/06/09 11:33:22;;;;;;;14.13;2.80;;;22.00;74.70;;;;;;5052800;28;20036;-57
2022/06/09 11:35:59;;;;;;;15.38;2.72;;;22.10;74.40;;;;;;5052594;28;20549;-55
2022/06/09 11:38:27;;;;;;;12.75;2.22;;;21.80;74.90;;;;;;5064609;28;20101;-57
2022/06/09 11:41:19;;;;;;;16.80;3.03;;;21.60;72.40;;;;;;5054947;28;20116;-56
2022/06/09 11:44:11;;;;;;;10.18;2.30;;;21.40;76.30;;;;;;5069730;28;20107;-61
2022/06/09 11:46:39;;;;;;;13.52;2.90;;;21.30;76.80;;;;;;5061350;28;20052;-61
2022/06/09 11:49:12;;;;;;;17.58;3.33;;;21.30;75.10;;;;;;5069168;28;20025;-52
2022/06/09 11:51:40;;;;;;;14.40;3.20;;;21.20;77.30;;;;;;5052303;28;20075;-49
2022/06/09 11:54:28;;;;;;;14.77;2.53;;;21.20;74.80;;;;;;5053795;28;20115;-42
2022/06/09 11:57:16;;;;;;;19.05;3.00;;;21.10;73.00;;;;;;5054643;28;20025;-40
2022/06/09 12:00:24;;;;;;;16.73;2.70;;;21.10;75.60;;;;;;5051837;28;20060;-59
2022/06/09 12:02:55;;;;;;;13.75;2.35;;;21.00;75.60;;;;;;5053898;28;20495;-51
2022/06/09 12:05:29;;;;;;;13.80;2.90;;;20.80;76.60;;;;;;5062160;28;20029;-56
2022/06/09 12:07:58;;;;;;;16.77;3.10;;;20.80;72.60;;;;;;5061145;28;20028;-60
2022/06/09 12:10:57;;;;;;;12.40;2.67;;;20.70;75.60;;;;;;5052035;28;20059;-55
2022/06/09 12:14:00;;;;;;;16.38;3.22;;;20.80;78.70;;;;;;5052047;28;20079;-60
2022/06/09 12:16:57;;;;;;;10.43;2.00;;;20.70;77.10;;;;;;5051863;28;20509;-59
2022/06/09 12:19:31;;;;;;;14.68;3.00;;;20.80;75.30;;;;;;5060370;28;20112;-61
2022/06/09 12:22:18;;;;;;;13.18;2.75;;;20.90;77.80;;;;;;5071880;28;20036;-62
2022/06/09 12:25:10;;;;;;;12.55;2.55;;;21.00;72.80;;;;;;5071388;28;20031;-55
2022/06/09 12:27:42;;;;;;;11.98;2.42;;;20.90;74.30;;;;;;5071694;28;20036;-59
2022/06/09 12:30:37;;;;;;;18.30;2.58;;;21.10;76.50;;;;;;5058370;28;20029;-60
2022/06/09 12:33:15;;;;;;;15.13;2.25;;;21.20;71.40;;;;;;5069066;28;20539;-51
2022/06/09 12:35:50;;;;;;;14.48;2.83;;;21.20;73.50;;;;;;5059782;28;20029;-51
2022/06/09 12:38:19;;;;;;;14.30;2.78;;;21.20;72.00;;;;;;5051495;28;20109;-53
2022/06/09 12:41:09;;;;;;;13.70;2.63;;;21.30;71.10;;;;;;5051354;28;20032;-51
2022/06/09 12:43:53;;;;;;;15.90;2.85;;;21.40;75.30;;;;;;5051373;28;20028;-45
2022/06/09 12:46:25;;;;;;;25.38;3.85;;;21.70;77.90;;;;;;5051471;28;20833;-52
2022/06/09 12:48:53;;;;;;;16.25;2.72;;;21.40;68.20;;;;;;5063331;28;20025;-49
2022/06/09 12:51:26;;;;;;;14.70;2.17;;;21.40;71.40;;;;;;5051202;28;20036;-46
2022/06/09 12:54:22;;;;;;;9.13;1.60;;;21.40;67.70;;;;;;5051061;28;20017;-55
2022/06/09 12:57:03;;;;;;;15.65;2.25;;;21.10;69.60;;;;;;5066753;28;20081;-52
2022/06/09 12:59:39;;;;;;;14.18;2.50;;;21.20;67.30;;;;;;5071042;28;20059;-53
2022/06/09 13:02:11;;;;;;;15.05;2.47;;;21.00;71.50;;;;;;5070890;28;20107;-59
2022/06/09 13:04:49;;;;;;;16.73;2.65;;;21.30;72.10;;;;;;5071090;28;20025;-59
2022/06/09 13:07:25;;;;;;;11.65;2.10;;;21.50;70.70;;;;;;5071069;28;20024;-57
2022/06/09 13:10:18;;;;;;;11.30;1.90;;;21.60;64.40;;;;;;5071129;28;20028;-51
2022/06/09 13:12:52;;;;;;;16.10;2.70;;;21.60;64.10;;;;;;5070868;28;20021;-59
2022/06/09 13:15:36;;;;;;;15.38;1.98;;;21.50;66.50;;;;;;5056348;28;20470;-56
2022/06/09 13:18:26;;;;;;;12.05;1.60;;;21.60;64.40;;;;;;5062143;28;20103;-61
2022/06/09 13:20:58;;;;;;;14.63;2.40;;;21.60;66.50;;;;;;5063965;28;20392;-59
2022/06/09 13:23:25;;;;;;;8.65;1.98;;;21.70;64.70;;;;;;5050756;28;20488;-61
2022/06/09 13:25:50;;;;;;;12.02;1.98;;;21.80;66.10;;;;;;5050671;28;20033;-54
2022/06/09 13:28:28;;;;;;;8.63;1.90;;;21.70;59.80;;;;;;5050757;28;20039;-58
2022/06/09 13:30:54;;;;;;;8.02;1.38;;;21.60;61.80;;;;;;5050615;28;20075;-54